Dart — OUOV2 — position and weather

sailwx.info

Track history (hours):
 
Tides and Currents Weather Stations Pressure Air Temp Water Temp Dewpoint Dewpoint Depression Visibility Wind Speed Wind Dir Waves Ship Positions

Dart

Last reported at 2015-May-04 16:33 UTC. Time now 2015-May-04 17:05 UTC.
Position N 64°44' E 010°58'.

Length 66 m; draft 4.5 m.

Type: Tanker. MMSI: 219416000.

Date/timePositionNaut miles runAvg speedWind from/ knotsBaromVisibWave heightAir tempDewpointWater temp
2015-May-04 16:33N 64°44' E 010°58'75 9.3
2015-May-04 08:32N 63°40' E 009°29'283 7.2
2015-May-02 17:20N 59°25' E 005°14'0 0.0
2015-May-02 16:32N 59°25' E 005°14'0 0.0
2015-May-02 15:26N 59°25' E 005°14'0 0.0
2015-May-02 14:31N 59°25' E 005°14'0 0.0
2015-May-02 13:32N 59°25' E 005°14'0 0.0
2015-May-02 12:28N 59°25' E 005°14'0 0.0
2015-May-02 11:33N 59°25' E 005°14'0 0.0
2015-May-02 10:31N 59°25' E 005°14'0 0.0
2015-May-02 09:31N 59°25' E 005°14'0 0.0
2015-May-02 08:31N 59°25' E 005°14'0 0.0
2015-May-02 07:32N 59°25' E 005°14'0 0.0
2015-May-02 06:11N 59°25' E 005°14'2 3.3
2015-May-02 05:28N 59°23' E 005°17'8 8.8
2015-May-02 04:33N 59°15' E 005°21'8 8.0
2015-May-02 03:33N 59°08' E 005°26'8 7.6
2015-May-02 02:33N 59°01' E 005°33'6 5.4
2015-May-02 01:32N 58°56' E 005°36'0 0.0
2015-May-02 00:32N 58°56' E 005°36'0 0.0
2015-May-01 23:32N 58°56' E 005°36'0 0.0
2015-May-01 22:32N 58°56' E 005°36'0 0.0
2015-May-01 21:32N 58°56' E 005°36'0 0.1
2015-May-01 20:29N 58°56' E 005°35'0 0.0
2015-May-01 19:32N 58°56' E 005°35'0 0.0
2015-May-01 18:32N 58°56' E 005°35'0 0.0
2015-May-01 17:32N 58°56' E 005°35'0 0.0
2015-May-01 16:32N 58°56' E 005°35'0 0.0
2015-May-01 15:32N 58°56' E 005°35'0 0.0
2015-May-01 14:32N 58°56' E 005°35'0 0.0
2015-May-01 13:32N 58°56' E 005°35'0 0.0
2015-May-01 12:32N 58°56' E 005°35'0 0.0
2015-May-01 11:32N 58°56' E 005°35'0 0.0
2015-May-01 10:32N 58°56' E 005°35'0 0.0
2015-May-01 09:32N 58°56' E 005°35'0 0.0
2015-May-01 08:32N 58°56' E 005°35'0 0.0
2015-May-01 07:32N 58°56' E 005°35'1 0.6
2015-May-01 06:33N 58°56' E 005°34'6 6.1
2015-May-01 05:33N 59°01' E 005°38'2 1.6
2015-May-01 04:33N 58°60' E 005°40'0 0.0
2015-May-01 03:33N 58°60' E 005°40'0 0.0
2015-May-01 02:33N 58°60' E 005°40'0 0.0
2015-May-01 01:30N 58°60' E 005°40'0 0.0
2015-May-01 00:33N 58°60' E 005°40'0 0.0
2015-Apr-30 23:33N 58°60' E 005°40'0 0.0
2015-Apr-30 22:33N 58°60' E 005°40'0 0.0
2015-Apr-30 21:33N 58°60' E 005°40'0 0.0
2015-Apr-30 20:33N 58°60' E 005°40'0 0.0
2015-Apr-30 19:33N 58°60' E 005°40'0 0.0
2015-Apr-30 18:33N 58°60' E 005°40'0 0.0
2015-Apr-30 17:33N 58°60' E 005°40'4 3.7
2015-Apr-30 16:33N 59°00' E 005°33'5 5.2
2015-Apr-30 15:33N 58°55' E 005°36'0 0.0
2015-Apr-30 14:30N 58°55' E 005°36'0 0.0
2015-Apr-30 13:33N 58°55' E 005°36'0 0.0
2015-Apr-30 12:33N 58°55' E 005°36'0 0.0
2015-Apr-30 11:33N 58°55' E 005°36'2 1.7
2015-Apr-30 10:33N 58°56' E 005°33'9 8.9
2015-Apr-30 09:33N 59°05' E 005°31'9 8.7
2015-Apr-30 08:33N 59°14' E 005°27'8 6.9
2015-Apr-30 07:24N 59°20' E 005°19'7 8.5
2015-Apr-30 06:32N 59°27' E 005°13'230 6.0
2015-Apr-28 16:12N 63°06' E 007°44'54 3.2
2015-Apr-27 23:12N 63°35' E 009°26'910.3
2015-Apr-27 22:23N 63°39' E 009°43'7 9.0
2015-Apr-27 21:33N 63°33' E 009°52'8 7.6
2015-Apr-27 20:33N 63°29' E 010°07'9 9.3
2015-Apr-27 19:33N 63°33' E 010°25'1010.0
2015-Apr-27 18:33N 63°39' E 010°44'1010.1
2015-Apr-27 17:33N 63°44' E 011°03'9 0.4
2015-Apr-26 21:15N 63°47' E 011°22'7 9.5
2015-Apr-26 20:33N 63°45' E 011°08'9 9.3
2015-Apr-26 19:33N 63°41' E 010°50'10 9.6
2015-Apr-26 18:33N 63°35' E 010°32'10 9.5
2015-Apr-26 17:33N 63°30' E 010°13'8 7.9
2015-Apr-26 16:33N 63°30' E 009°56'9 8.9
2015-Apr-26 15:31N 63°38' E 009°47'  
Track history (hours):
 
Tides and Currents Weather Stations Pressure Air Temp Water Temp Dewpoint Dewpoint Depression Visibility Wind Speed Wind Dir Waves Ship Positions

Dart

Last reported at 2015-May-04 16:33 UTC. Time now 2015-May-04 17:05 UTC.
Position N 64°44' E 010°58'.

Length 66 m; draft 4.5 m.

Type: Tanker. MMSI: 219416000.

Date/timePositionNaut miles runAvg speedWind from/ knotsBaromVisibWave heightAir tempDewpointWater temp
2015-May-04 16:33N 64°44' E 010°58'75 9.3
2015-May-04 08:32N 63°40' E 009°29'283 7.2
2015-May-02 17:20N 59°25' E 005°14'0 0.0
2015-May-02 16:32N 59°25' E 005°14'0 0.0
2015-May-02 15:26N 59°25' E 005°14'0 0.0
2015-May-02 14:31N 59°25' E 005°14'0 0.0
2015-May-02 13:32N 59°25' E 005°14'0 0.0
2015-May-02 12:28N 59°25' E 005°14'0 0.0
2015-May-02 11:33N 59°25' E 005°14'0 0.0
2015-May-02 10:31N 59°25' E 005°14'0 0.0
2015-May-02 09:31N 59°25' E 005°14'0 0.0
2015-May-02 08:31N 59°25' E 005°14'0 0.0
2015-May-02 07:32N 59°25' E 005°14'0 0.0
2015-May-02 06:11N 59°25' E 005°14'2 3.3
2015-May-02 05:28N 59°23' E 005°17'8 8.8
2015-May-02 04:33N 59°15' E 005°21'8 8.0
2015-May-02 03:33N 59°08' E 005°26'8 7.6
2015-May-02 02:33N 59°01' E 005°33'6 5.4
2015-May-02 01:32N 58°56' E 005°36'0 0.0
2015-May-02 00:32N 58°56' E 005°36'0 0.0
2015-May-01 23:32N 58°56' E 005°36'0 0.0
2015-May-01 22:32N 58°56' E 005°36'0 0.0
2015-May-01 21:32N 58°56' E 005°36'0 0.1
2015-May-01 20:29N 58°56' E 005°35'0 0.0
2015-May-01 19:32N 58°56' E 005°35'0 0.0
2015-May-01 18:32N 58°56' E 005°35'0 0.0
2015-May-01 17:32N 58°56' E 005°35'0 0.0
2015-May-01 16:32N 58°56' E 005°35'0 0.0
2015-May-01 15:32N 58°56' E 005°35'0 0.0
2015-May-01 14:32N 58°56' E 005°35'0 0.0
2015-May-01 13:32N 58°56' E 005°35'0 0.0
2015-May-01 12:32N 58°56' E 005°35'0 0.0
2015-May-01 11:32N 58°56' E 005°35'0 0.0
2015-May-01 10:32N 58°56' E 005°35'0 0.0
2015-May-01 09:32N 58°56' E 005°35'0 0.0
2015-May-01 08:32N 58°56' E 005°35'0 0.0
2015-May-01 07:32N 58°56' E 005°35'1 0.6
2015-May-01 06:33N 58°56' E 005°34'6 6.1
2015-May-01 05:33N 59°01' E 005°38'2 1.6
2015-May-01 04:33N 58°60' E 005°40'0 0.0
2015-May-01 03:33N 58°60' E 005°40'0 0.0
2015-May-01 02:33N 58°60' E 005°40'0 0.0
2015-May-01 01:30N 58°60' E 005°40'0 0.0
2015-May-01 00:33N 58°60' E 005°40'0 0.0
2015-Apr-30 23:33N 58°60' E 005°40'0 0.0
2015-Apr-30 22:33N 58°60' E 005°40'0 0.0
2015-Apr-30 21:33N 58°60' E 005°40'0 0.0
2015-Apr-30 20:33N 58°60' E 005°40'0 0.0
2015-Apr-30 19:33N 58°60' E 005°40'0 0.0
2015-Apr-30 18:33N 58°60' E 005°40'0 0.0
2015-Apr-30 17:33N 58°60' E 005°40'4 3.7
2015-Apr-30 16:33N 59°00' E 005°33'5 5.2
2015-Apr-30 15:33N 58°55' E 005°36'0 0.0
2015-Apr-30 14:30N 58°55' E 005°36'0 0.0
2015-Apr-30 13:33N 58°55' E 005°36'0 0.0
2015-Apr-30 12:33N 58°55' E 005°36'0 0.0
2015-Apr-30 11:33N 58°55' E 005°36'2 1.7
2015-Apr-30 10:33N 58°56' E 005°33'9 8.9
2015-Apr-30 09:33N 59°05' E 005°31'9 8.7
2015-Apr-30 08:33N 59°14' E 005°27'8 6.9
2015-Apr-30 07:24N 59°20' E 005°19'7 8.5
2015-Apr-30 06:32N 59°27' E 005°13'230 6.0
2015-Apr-28 16:12N 63°06' E 007°44'54 3.2
2015-Apr-27 23:12N 63°35' E 009°26'910.3
2015-Apr-27 22:23N 63°39' E 009°43'7 9.0
2015-Apr-27 21:33N 63°33' E 009°52'8 7.6
2015-Apr-27 20:33N 63°29' E 010°07'9 9.3
2015-Apr-27 19:33N 63°33' E 010°25'1010.0
2015-Apr-27 18:33N 63°39' E 010°44'1010.1
2015-Apr-27 17:33N 63°44' E 011°03'9 0.4
2015-Apr-26 21:15N 63°47' E 011°22'7 9.5
2015-Apr-26 20:33N 63°45' E 011°08'9 9.3
2015-Apr-26 19:33N 63°41' E 010°50'10 9.6
2015-Apr-26 18:33N 63°35' E 010°32'10 9.5
2015-Apr-26 17:33N 63°30' E 010°13'8 7.9
2015-Apr-26 16:33N 63°30' E 009°56'9 8.9
2015-Apr-26 15:31N 63°38' E 009°47'  

Dump ship's entire track history